Time;durP1;ratioP1;P1;durP2;ratioP2;P2;SDS_P1;SDS_P2;PMS_P1;PMS_P2;Temp;Humidity;BMP_temperature;BMP_pressure;BME280_temperature;BME280_humidity;BME280_pressure;Samples;Min_cycle;Max_cycle;Signal;HPM_P1;HPM_P2
2022/05/28 00:00:24;;;;;;;15.68;2.65;;;;;;;9.50;100.00;97778.22;5093452;28;20078;-81
2022/05/28 00:02:51;;;;;;;11.38;2.05;;;;;;;9.51;100.00;97777.13;5077781;28;20090;-80
2022/05/28 00:05:18;;;;;;;15.05;2.38;;;;;;;9.43;100.00;97777.84;5096124;28;20059;-80
2022/05/28 00:07:44;;;;;;;10.57;1.98;;;;;;;9.44;100.00;97771.34;5095143;28;20107;-80
2022/05/28 00:10:14;;;;;;;8.35;1.83;;;;;;;9.43;100.00;97779.72;5095876;28;20131;-78
2022/05/28 00:12:41;;;;;;;11.30;2.13;;;;;;;9.40;100.00;97781.13;5094667;28;20088;-82
2022/05/28 00:15:08;;;;;;;18.67;2.33;;;;;;;9.37;100.00;97774.44;5095988;28;20059;-81
2022/05/28 00:17:34;;;;;;;12.35;2.17;;;;;;;9.36;100.00;97785.56;5079140;28;20072;-83
2022/05/28 00:20:02;;;;;;;12.07;1.55;;;;;;;9.36;100.00;97777.44;5096875;28;20048;-80
2022/05/28 00:22:29;;;;;;;15.38;2.10;;;;;;;9.30;100.00;97754.34;5075018;28;20077;-79
2022/05/28 00:24:56;;;;;;;13.32;1.98;;;;;;;9.38;100.00;97773.34;5074351;28;20087;-78
2022/05/28 00:27:22;;;;;;;13.15;1.80;;;;;;;9.33;100.00;97786.97;5073893;28;20135;-79
2022/05/28 00:29:51;;;;;;;11.35;2.10;;;;;;;9.28;100.00;97786.25;5091854;28;20078;-79
2022/05/28 00:32:18;;;;;;;11.57;1.95;;;;;;;9.16;100.00;97756.28;5092999;28;20047;-82
2022/05/28 00:34:44;;;;;;;16.52;2.15;;;;;;;9.26;100.00;97780.38;5075529;28;20090;-82
2022/05/28 00:37:11;;;;;;;13.65;1.70;;;;;;;9.21;100.00;97777.78;5075799;28;20052;-83
2022/05/28 00:39:37;;;;;;;10.48;2.00;;;;;;;9.26;100.00;97780.38;5095222;28;20052;-80
2022/05/28 00:42:04;;;;;;;12.98;1.50;;;;;;;9.10;100.00;97765.56;5087085;28;20048;-78
2022/05/28 00:44:30;;;;;;;17.60;2.00;;;;;;;9.12;100.00;97768.78;5097046;28;20031;-80
2022/05/28 00:47:00;;;;;;;9.23;1.67;;;;;;;9.07;100.00;97785.06;5092721;28;20039;-79
2022/05/28 00:49:30;;;;;;;13.68;1.67;;;;;;;9.10;100.00;97769.09;5087241;28;20581;-81
2022/05/28 00:52:01;;;;;;;10.55;1.83;;;;;;;9.07;100.00;97771.56;5098351;28;20083;-80
2022/05/28 00:54:42;;;;;;;11.07;1.88;;;;;;;9.05;100.00;97771.09;5077147;28;20062;-84
2022/05/28 00:57:11;;;;;;;15.98;1.70;;;;;;;9.00;100.00;97766.59;5096750;28;20055;-80
2022/05/28 00:59:38;;;;;;;14.00;1.90;;;;;;;8.97;100.00;97758.28;5095884;28;20063;-79
2022/05/28 01:02:34;;;;;;;13.15;2.20;;;;;;;8.89;100.00;97757.09;5095996;28;20051;-81
2022/05/28 01:05:06;;;;;;;;;;;;;;;8.97;100.00;97785.28;5078456;28;20059;-81
2022/05/28 01:07:48;;;;;;;12.77;2.28;;;;;;;8.92;100.00;97769.19;5097719;28;19920;-81
2022/05/28 01:10:52;;;;;;;12.15;1.83;;;;;;;8.91;100.00;97771.09;5073627;28;20079;-80
2022/05/28 01:13:28;;;;;;;12.70;2.10;;;;;;;8.85;100.00;97760.69;5093156;28;20643;-81
2022/05/28 01:16:02;;;;;;;12.27;1.73;;;;;;;8.75;100.00;97758.97;5075299;28;20153;-83
2022/05/28 01:18:33;;;;;;;16.17;2.10;;;;;;;8.72;100.00;97746.09;5093444;28;20094;-82
2022/05/28 01:21:07;;;;;;;10.55;1.67;;;;;;;8.82;100.00;97762.09;5093342;28;20051;-80
2022/05/28 01:23:57;;;;;;;19.35;2.05;;;;;;;8.82;100.00;97753.19;5076089;28;20048;-84
2022/05/28 01:26:44;;;;;;;9.35;1.70;;;;;;;8.81;100.00;97760.50;5075619;28;20127;-83
2022/05/28 01:29:16;;;;;;;12.98;1.90;;;;;;;8.71;100.00;97741.81;5095611;28;20048;-78
2022/05/28 01:31:45;;;;;;;9.88;1.95;;;;;;;8.68;100.00;97751.28;5077637;28;20079;-79
2022/05/28 01:34:15;;;;;;;11.20;2.20;;;;;;;8.68;100.00;97748.59;5094423;28;20109;-80
2022/05/28 01:36:43;;;;;;;13.25;2.38;;;;;;;8.64;100.00;97754.91;5094031;28;20044;-82
2022/05/28 01:39:12;;;;;;;18.25;1.75;;;;;;;8.58;100.00;97739.91;5076570;28;20588;-82
2022/05/28 01:41:40;;;;;;;14.05;2.00;;;;;;;8.58;100.00;97735.31;5075095;28;20093;-81
2022/05/28 01:44:09;;;;;;;15.13;2.10;;;;;;;8.60;100.00;97754.69;5092006;28;20517;-80
2022/05/28 01:46:38;;;;;;;11.23;1.77;;;;;;;8.50;100.00;97748.69;5097888;28;20067;-82
2022/05/28 01:49:09;;;;;;;10.27;1.80;;;;;;;8.48;100.00;97749.00;5080064;28;20079;-84
2022/05/28 01:51:43;;;;;;;13.52;2.20;;;;;;;8.42;100.00;97735.88;5097820;28;20150;-80
2022/05/28 01:54:14;;;;;;;10.50;1.60;;;;;;;8.41;100.00;97734.28;5095964;28;20615;-82
2022/05/28 01:56:45;;;;;;;8.48;1.33;;;;;;;8.36;100.00;97735.16;5097531;28;20079;-82
2022/05/28 01:59:15;;;;;;;11.15;1.90;;;;;;;8.33;100.00;97733.09;5094407;28;20196;-80
2022/05/28 02:01:42;;;;;;;11.40;1.60;;;;;;;8.30;100.00;97724.78;5094677;28;20059;-78
2022/05/28 02:04:09;;;;;;;13.43;1.60;;;;;;;8.27;100.00;97730.75;5077193;28;20184;-80
2022/05/28 02:06:38;;;;;;;16.40;1.83;;;;;;;8.22;100.00;97726.25;5098159;28;20056;-80
2022/05/28 02:09:08;;;;;;;12.00;2.00;;;;;;;8.18;100.00;97723.31;5097310;28;20078;-79
2022/05/28 02:12:24;;;;;;;14.65;2.20;;;;;;;8.12;100.00;97721.84;5096909;28;20079;-80
2022/05/28 02:15:04;;;;;;;9.85;1.80;;;;;;;8.04;100.00;97719.00;5040723;28;20053;-80
2022/05/28 02:18:10;;;;;;;13.98;2.15;;;;;;;7.96;100.00;97717.00;5096379;28;20048;-80
2022/05/28 02:20:55;;;;;;;12.90;1.50;;;;;;;8.07;100.00;97726.50;5083290;28;20084;-79
2022/05/28 02:23:28;;;;;;;12.20;1.98;;;;;;;7.98;100.00;97707.50;5092375;28;20055;-77
2022/05/28 02:26:08;;;;;;;11.02;1.80;;;;;;;8.02;100.00;97721.22;5074739;28;20090;-79
2022/05/28 02:28:35;;;;;;;15.10;1.85;;;;;;;8.06;100.00;97706.84;5075622;28;20048;-80
2022/05/28 02:31:15;;;;;;;13.80;1.88;;;;;;;8.14;100.00;97718.81;5094798;28;20482;-81
2022/05/28 02:33:43;;;;;;;11.40;1.70;;;;;;;8.13;100.00;97707.25;5094601;28;20055;-81
2022/05/28 02:36:13;;;;;;;9.88;1.58;;;;;;;8.19;100.00;97705.25;5095042;28;20075;-80
2022/05/28 02:38:41;;;;;;;10.85;1.50;;;;;;;8.16;100.00;97706.66;5077375;28;20125;-78
2022/05/28 02:41:07;;;;;;;10.90;1.63;;;;;;;8.18;100.00;97715.22;5077455;28;20086;-79
2022/05/28 02:43:34;;;;;;;11.55;1.70;;;;;;;8.13;100.00;97696.44;5099270;28;20551;-78
2022/05/28 02:46:02;;;;;;;12.95;1.60;;;;;;;8.19;100.00;97702.56;5103413;28;20061;-80
2022/05/28 02:48:29;;;;;;;12.95;2.15;;;;;;;8.18;100.00;97695.59;5079515;28;20056;-80
2022/05/28 02:51:08;;;;;;;8.27;1.55;;;;;;;8.16;100.00;97712.03;5095644;28;20051;-79
2022/05/28 02:53:35;;;;;;;8.18;1.50;;;;;;;8.18;100.00;97706.38;5096186;28;20083;-81
2022/05/28 02:56:02;;;;;;;12.00;1.58;;;;;;;8.16;100.00;97698.56;5094953;28;20082;-78
2022/05/28 02:58:29;;;;;;;12.23;1.83;;;;;;;8.21;100.00;97697.66;5076526;28;20052;-79
2022/05/28 03:00:57;;;;;;;5.63;1.23;;;;;;;8.18;100.00;97697.47;5095042;28;20059;-78
2022/05/28 03:03:24;;;;;;;13.75;1.40;;;;;;;8.22;100.00;97693.88;5095797;28;20067;-79
2022/05/28 03:05:51;;;;;;;8.15;1.50;;;;;;;8.22;100.00;97695.78;5095941;28;20051;-79
2022/05/28 03:08:18;;;;;;;8.52;1.48;;;;;;;8.21;100.00;97697.66;5079247;28;20564;-80
2022/05/28 03:10:46;;;;;;;9.88;1.38;;;;;;;8.15;100.00;97683.47;5095275;28;20474;-81
2022/05/28 03:13:13;;;;;;;11.43;1.92;;;;;;;8.18;100.00;97690.19;5096185;28;20104;-80
2022/05/28 03:15:40;;;;;;;16.30;1.80;;;;;;;8.12;100.00;97689.47;5095687;28;20090;-81
2022/05/28 03:18:06;;;;;;;9.52;1.60;;;;;;;8.14;100.00;97703.47;5096298;28;20109;-79
2022/05/28 03:20:33;;;;;;;8.40;1.63;;;;;;;8.09;100.00;97683.88;5072778;28;20076;-79
2022/05/28 03:22:59;;;;;;;12.32;1.65;;;;;;;8.11;100.00;97689.75;5091825;28;20052;-80
2022/05/28 03:25:26;;;;;;;9.80;1.48;;;;;;;8.09;100.00;97686.56;5092265;28;20080;-80
2022/05/28 03:27:52;;;;;;;10.02;1.55;;;;;;;8.15;100.00;97690.78;5075011;28;20362;-82
2022/05/28 03:30:19;;;;;;;13.27;1.73;;;;;;;8.08;100.00;97684.94;5093791;28;20052;-80
2022/05/28 03:32:45;;;;;;;14.55;1.40;;;;;;;8.20;100.00;97690.69;5093328;28;20055;-80
2022/05/28 03:35:12;;;;;;;11.60;1.50;;;;;;;8.30;100.00;97704.00;5095260;28;20514;-79
2022/05/28 03:37:39;;;;;;;8.15;1.30;;;;;;;8.35;100.00;97676.94;5094899;28;20108;-80
2022/05/28 03:40:06;;;;;;;6.97;1.42;;;;;;;8.43;100.00;97678.94;5095525;28;20171;-81
2022/05/28 03:42:33;;;;;;;6.25;1.20;;;;;;;8.40;100.00;97681.44;5096047;28;20056;-79
2022/05/28 03:45:00;;;;;;;9.25;1.13;;;;;;;8.31;100.00;97686.72;5095407;28;20454;-80
2022/05/28 03:47:26;;;;;;;10.75;1.80;;;;;;;8.26;100.00;97696.78;5095097;28;20105;-81
2022/05/28 03:49:53;;;;;;;10.20;1.45;;;;;;;8.16;100.00;97671.59;5096524;28;20112;-79
2022/05/28 03:52:19;;;;;;;12.43;1.88;;;;;;;8.21;100.00;97694.19;5076506;28;20083;-80
2022/05/28 03:54:46;;;;;;;6.75;1.42;;;;;;;8.29;100.00;97677.31;5094330;28;20089;-80
2022/05/28 03:57:20;;;;;;;14.23;1.90;;;;;;;8.32;100.00;97691.03;5095268;28;20127;-81
2022/05/28 03:59:46;;;;;;;10.05;1.33;;;;;;;8.34;100.00;97672.63;5092937;28;20502;-80
2022/05/28 04:02:13;;;;;;;11.65;1.42;;;;;;;8.43;100.00;97684.34;5090207;28;20102;-81
2022/05/28 04:04:40;;;;;;;10.23;1.85;;;;;;;8.42;100.00;97682.72;5073964;28;20056;-82
2022/05/28 04:07:09;;;;;;;17.10;1.45;;;;;;;8.53;100.00;97689.53;5073868;28;20120;-79
2022/05/28 04:09:35;;;;;;;12.90;1.60;;;;;;;8.51;100.00;97688.25;5098367;28;20048;-80
2022/05/28 04:12:02;;;;;;;11.57;1.48;;;;;;;8.43;100.00;97678.94;5096798;28;20068;-81
2022/05/28 04:14:28;;;;;;;6.63;1.42;;;;;;;8.48;100.00;97686.13;5078256;28;20072;-79
2022/05/28 04:16:55;;;;;;;6.82;1.67;;;;;;;8.60;100.00;97694.50;5094599;28;20056;-80
2022/05/28 04:19:22;;;;;;;10.23;1.50;;;;;;;8.61;100.00;97688.03;5092837;28;20063;-79
2022/05/28 04:21:48;;;;;;;6.93;1.40;;;;;;;8.59;100.00;97692.94;5091826;28;20048;-80
2022/05/28 04:24:15;;;;;;;10.82;1.50;;;;;;;8.55;100.00;97684.63;5092145;28;20107;-79
2022/05/28 04:26:42;;;;;;;12.80;1.50;;;;;;;8.50;100.00;97684.72;5075179;28;20053;-79
2022/05/28 04:29:09;;;;;;;9.93;1.27;;;;;;;8.63;100.00;97702.81;5074826;28;20072;-81
2022/05/28 04:31:35;;;;;;;10.13;1.50;;;;;;;8.63;100.00;97702.00;5076486;28;20060;-81
2022/05/28 04:34:02;;;;;;;9.80;1.55;;;;;;;8.64;100.00;97688.25;5079143;28;20048;-79
2022/05/28 04:36:29;;;;;;;11.63;1.67;;;;;;;8.65;100.00;97695.22;5097844;28;20047;-83
2022/05/28 04:38:55;;;;;;;12.95;1.60;;;;;;;8.66;100.00;97687.94;5097523;28;20074;-81
2022/05/28 04:41:22;;;;;;;9.82;1.40;;;;;;;8.73;100.00;97691.81;5077552;28;20077;-81
2022/05/28 04:43:48;;;;;;;9.18;1.67;;;;;;;8.69;100.00;97696.22;5079167;28;20059;-80
2022/05/28 04:46:15;;;;;;;9.00;1.30;;;;;;;8.77;100.00;97697.44;5079940;28;20051;-82
2022/05/28 04:48:42;;;;;;;8.98;1.80;;;;;;;8.79;100.00;97703.31;5086444;28;20074;-78
2022/05/28 04:51:08;;;;;;;5.60;1.10;;;;;;;8.79;100.00;97700.63;5089347;28;20044;-83
2022/05/28 04:53:35;;;;;;;8.00;1.50;;;;;;;8.64;100.00;97679.34;5102198;28;20052;-83
2022/05/28 04:56:02;;;;;;;7.45;1.10;;;;;;;8.84;100.00;97695.09;5098970;28;20052;-82
2022/05/28 04:58:28;;;;;;;9.15;1.42;;;;;;;8.89;100.00;97700.41;5099375;28;20074;-81
2022/05/28 05:00:56;;;;;;;13.13;1.63;;;;;;;8.89;100.00;97691.50;5079483;28;20547;-84
2022/05/28 05:03:23;;;;;;;9.75;1.70;;;;;;;8.95;100.00;97688.41;5109794;28;20052;-79
2022/05/28 05:05:49;;;;;;;10.75;1.70;;;;;;;9.21;100.00;97684.00;5114061;28;20051;-77
2022/05/28 05:08:16;;;;;;;13.77;1.85;;;;;;;9.22;100.00;97685.63;5113864;28;20036;-81
2022/05/28 05:10:44;;;;;;;10.30;1.88;;;;;;;9.11;100.00;97686.94;5083156;28;20442;-79
2022/05/28 05:13:11;;;;;;;8.43;1.20;;;;;;;9.04;100.00;97685.75;5079845;28;20131;-80
2022/05/28 05:15:38;;;;;;;9.35;1.38;;;;;;;9.11;100.00;97694.28;5089926;28;20079;-79
2022/05/28 05:18:05;;;;;;;8.40;1.40;;;;;;;9.15;100.00;97684.44;5073762;28;20053;-85
2022/05/28 05:20:32;;;;;;;9.68;1.63;;;;;;;9.39;100.00;97701.97;5098100;28;20078;-82
2022/05/28 05:22:58;;;;;;;10.30;1.50;;;;;;;9.13;100.00;97673.16;5101638;28;20044;-83
2022/05/28 05:25:26;;;;;;;10.52;1.40;;;;;;;9.09;100.00;97726.16;5103822;28;20044;-81
2022/05/28 05:27:53;;;;;;;9.93;1.45;;;;;;;8.75;100.00;97723.88;5103477;28;20048;-84
2022/05/28 05:30:20;;;;;;;10.60;2.25;;;;;;;8.57;100.00;97716.69;5102034;28;20074;-79
2022/05/28 05:32:46;;;;;;;11.75;1.60;;;;;;;8.41;100.00;97735.09;5099784;28;20047;-82
2022/05/28 05:35:13;;;;;;;17.58;2.03;;;;;;;8.10;100.00;97750.19;5099101;28;20048;-87
2022/05/28 05:37:40;;;;;;;13.85;1.60;;;;;;;7.85;100.00;97739.81;5088022;28;20078;-83
2022/05/28 05:40:08;;;;;;;12.70;2.08;;;;;;;7.77;100.00;97749.34;5079214;28;20066;-80
2022/05/28 05:42:34;;;;;;;13.65;2.03;;;;;;;7.66;100.00;97730.97;5080653;28;20116;-81
2022/05/28 05:45:01;;;;;;;14.00;1.70;;;;;;;7.62;100.00;97749.59;5098174;28;20048;-83
2022/05/28 05:47:28;;;;;;;13.10;1.80;;;;;;;7.47;100.00;97739.88;5097674;28;20106;-84
2022/05/28 05:49:55;;;;;;;5.25;1.38;;;;;;;7.44;100.00;97763.88;5076273;28;20139;-80
2022/05/28 05:52:21;;;;;;;16.98;2.25;;;;;;;7.42;100.00;97785.72;5079425;28;20059;-81
2022/05/28 05:54:50;;;;;;;7.47;1.33;;;;;;;7.20;100.00;97776.63;5095034;28;20083;-82
2022/05/28 05:57:17;;;;;;;6.13;0.95;;;;;;;6.95;100.00;97771.53;5089977;28;20623;-85
2022/05/28 05:59:45;;;;;;;6.82;1.38;;;;;;;6.95;100.00;97774.22;5072977;28;20051;-80
2022/05/28 06:02:12;;;;;;;8.63;1.30;;;;;;;6.94;100.00;97792.28;5090594;28;20089;-83
2022/05/28 06:04:39;;;;;;;4.85;1.27;;;;;;;6.94;100.00;97769.94;5074059;28;20085;-84
2022/05/28 06:07:06;;;;;;;5.88;1.35;;;;;;;6.87;100.00;97756.81;5074488;28;20070;-80
2022/05/28 06:09:33;;;;;;;7.38;1.05;;;;;;;6.93;100.00;97779.09;5092251;28;20052;-84
2022/05/28 06:12:00;;;;;;;5.70;1.15;;;;;;;6.91;100.00;97760.56;5090468;28;20047;-82
2022/05/28 06:14:27;;;;;;;5.90;1.00;;;;;;;6.91;100.00;97763.25;5091612;28;20048;-83
2022/05/28 06:16:54;;;;;;;4.25;1.17;;;;;;;7.04;100.00;97748.28;5079791;28;20063;-81
2022/05/28 06:19:21;;;;;;;4.38;1.40;;;;;;;7.12;100.00;97742.25;5099462;28;20048;-83
2022/05/28 06:21:48;;;;;;;3.78;1.67;;;;;;;7.32;100.00;97750.06;5097294;28;20064;-83
2022/05/28 06:24:14;;;;;;;5.30;1.65;;;;;;;7.51;100.00;97761.63;5098258;28;20081;-84
2022/05/28 06:26:41;;;;;;;6.45;1.70;;;;;;;7.48;100.00;97751.44;5099877;28;20048;-82
2022/05/28 06:29:07;;;;;;;6.70;1.90;;;;;;;7.63;100.00;97748.53;5102599;28;20070;-85
2022/05/28 06:31:34;;;;;;;7.22;1.60;;;;;;;7.80;100.00;97748.78;5104218;28;20113;-82
2022/05/28 06:34:00;;;;;;;5.07;1.23;;;;;;;7.78;100.00;97734.00;5087106;28;20056;-82
2022/05/28 06:36:27;;;;;;;7.03;1.75;;;;;;;7.89;100.00;97754.31;5104664;28;20048;-84
2022/05/28 06:38:53;;;;;;;5.57;1.60;;;;;;;7.97;100.00;97740.97;5086345;28;20064;-82
2022/05/28 06:41:20;;;;;;;4.85;1.23;;;;;;;8.02;100.00;97745.47;5106122;28;20052;-82
2022/05/28 06:43:47;;;;;;;9.20;1.52;;;;;;;8.20;100.00;97751.91;5088069;28;20059;-83
2022/05/28 06:46:13;;;;;;;7.35;1.30;;;;;;;8.33;100.00;97743.06;5105348;28;20109;-85
2022/05/28 06:48:41;;;;;;;7.03;1.48;;;;;;;8.47;100.00;97747.38;5104376;28;20044;-81
2022/05/28 06:51:07;;;;;;;6.75;1.58;;;;;;;8.77;100.00;97748.72;5106779;28;20044;-85
2022/05/28 06:53:43;;;;;;;13.75;1.52;;;;;;;8.80;100.00;97728.41;5087588;28;20064;-83
2022/05/28 06:56:11;;;;;;;7.30;1.92;;;;;;;8.88;100.00;97743.91;5103758;28;20059;-82
2022/05/28 06:58:39;;;;;;;8.13;1.48;;;;;;;8.96;100.00;97737.78;5100016;28;20051;-82
2022/05/28 07:01:07;;;;;;;11.93;2.42;;;;;;;8.96;100.00;97752.09;5080824;28;20123;-85
2022/05/28 07:03:34;;;;;;;10.93;2.00;;;;;;;9.14;100.00;97755.75;5099230;28;20050;-84
2022/05/28 07:06:03;;;;;;;11.43;2.00;;;;;;;9.26;100.00;97737.97;5080639;28;20059;-84
2022/05/28 07:08:32;;;;;;;10.50;2.28;;;;;;;9.26;100.00;97723.66;5101922;28;20040;-85
2022/05/28 07:11:01;;;;;;;16.50;2.50;;;;;;;9.57;100.00;97746.19;5074736;28;20123;-82
2022/05/28 07:13:29;;;;;;;13.40;2.15;;;;;;;9.75;100.00;97737.09;5075233;28;20052;-81
2022/05/28 07:15:56;;;;;;;11.45;1.95;;;;;;;9.87;100.00;97742.75;5082434;28;20108;-83
2022/05/28 07:18:23;;;;;;;12.55;1.95;;;;;;;9.95;100.00;97736.59;5079842;28;20048;-82
2022/05/28 07:20:51;;;;;;;9.43;1.80;;;;;;;9.99;100.00;97731.34;5098234;28;20063;-84
2022/05/28 07:23:20;;;;;;;11.82;2.67;;;;;;;10.32;100.00;97734.63;5107708;28;20211;-83
2022/05/28 07:25:47;;;;;;;9.95;1.67;;;;;;;10.62;100.00;97737.31;5093261;28;20048;-82
2022/05/28 07:28:24;;;;;;;8.77;1.90;;;;;;;10.64;100.00;97737.81;5092613;28;20051;-82
2022/05/28 07:30:52;;;;;;;11.23;1.55;;;;;;;11.19;100.00;97718.38;5110013;28;20178;-79
2022/05/28 07:33:19;;;;;;;7.47;1.50;;;;;;;11.49;100.00;97725.56;5110395;28;20056;-86
2022/05/28 07:35:47;;;;;;;11.98;1.60;;;;;;;11.39;100.00;97722.38;5107416;28;20048;-80
2022/05/28 07:38:14;;;;;;;10.98;1.38;;;;;;;11.68;100.00;97727.97;5081409;28;20072;-79
2022/05/28 07:40:40;;;;;;;8.15;1.67;;;;;;;11.47;100.00;97745.97;5099978;28;20578;-85
2022/05/28 07:43:08;;;;;;;10.30;1.15;;;;;;;10.95;100.00;97726.91;5079965;28;20076;-84
2022/05/28 07:45:37;;;;;;;5.60;1.20;;;;;;;10.64;100.00;97728.88;5080359;28;20048;-85
2022/05/28 07:48:12;;;;;;;7.68;1.25;;;;;;;10.42;100.00;97734.38;5099056;28;20055;-85
2022/05/28 07:50:39;;;;;;;12.05;1.40;;;;;;;10.40;100.00;97739.28;5098252;28;20074;-82
2022/05/28 07:53:06;;;;;;;8.00;1.38;;;;;;;10.14;100.00;97703.19;5081598;28;20059;-85
2022/05/28 07:55:33;;;;;;;8.15;1.85;;;;;;;10.19;100.00;97717.38;5080245;28;20047;-86
2022/05/28 07:58:11;;;;;;;8.18;1.40;;;;;;;10.23;100.00;97734.56;5098609;28;20109;-83
2022/05/28 08:00:40;;;;;;;8.95;1.60;;;;;;;10.49;100.00;97726.59;5081290;28;20073;-84
2022/05/28 08:03:08;;;;;;;10.73;1.63;;;;;;;10.53;100.00;97735.66;5080810;28;20072;-84
2022/05/28 08:05:36;;;;;;;10.45;1.90;;;;;;;10.69;100.00;97744.19;5080261;28;20124;-81
2022/05/28 08:08:05;;;;;;;7.70;1.73;;;;;;;10.73;100.00;97740.56;5074488;28;20143;-84
2022/05/28 08:10:31;;;;;;;10.13;1.80;;;;;;;10.60;100.00;97738.75;5075038;28;20093;-83
2022/05/28 08:13:06;;;;;;;7.68;1.58;;;;;;;10.71;100.00;97741.97;5094649;28;20052;-82
2022/05/28 08:15:34;;;;;;;7.82;1.60;;;;;;;11.02;100.00;97731.88;5076715;28;20055;-81
2022/05/28 08:18:00;;;;;;;10.63;2.30;;;;;;;11.40;100.00;97715.84;5091253;28;20621;-83
2022/05/28 08:23:12;;;;;;;8.20;1.20;;;;;;;11.41;100.00;97729.06;5093683;28;20044;-80
2022/05/28 08:25:40;;;;;;;5.88;1.20;;;;;;;11.87;100.00;97728.47;5093554;28;20139;-83
2022/05/28 08:28:08;;;;;;;8.13;1.33;;;;;;;11.79;100.00;97732.75;5076518;28;20076;-80
2022/05/28 08:30:37;;;;;;;8.02;1.20;;;;;;;11.68;100.00;97746.94;5095301;28;20101;-79
2022/05/28 08:33:08;;;;;;;9.60;1.92;;;;;;;11.84;100.00;97734.53;5094909;28;20052;-79
2022/05/28 08:35:36;;;;;;;9.93;1.83;;;;;;;11.77;100.00;97745.06;5096931;28;20100;-82
2022/05/28 08:38:04;;;;;;;6.13;1.15;;;;;;;11.60;100.00;97742.31;5096603;28;20075;-79
2022/05/28 08:40:37;;;;;;;6.68;1.45;;;;;;;11.55;100.00;97740.56;5096164;28;20064;-84
2022/05/28 08:43:08;;;;;;;7.13;1.40;;;;;;;12.22;100.00;97732.72;5097969;28;20153;-86
2022/05/28 08:45:38;;;;;;;5.72;1.33;;;;;;;12.25;100.00;97723.94;5079083;28;20051;-79
2022/05/28 08:48:06;;;;;;;8.05;1.50;;;;;;;12.90;100.00;97749.91;5080227;28;20044;-84
2022/05/28 08:50:45;;;;;;;10.55;1.55;;;;;;;11.87;100.00;97740.09;5079320;28;20048;-83
2022/05/28 08:53:15;;;;;;;10.25;1.58;;;;;;;11.72;100.00;97734.38;5096808;28;20105;-85
2022/05/28 08:55:45;;;;;;;9.00;1.40;;;;;;;11.67;100.00;97748.84;5096720;28;20529;-80
2022/05/28 08:58:15;;;;;;;12.57;1.70;;;;;;;11.60;100.00;97750.47;5079376;28;20051;-80
2022/05/28 09:00:47;;;;;;;5.93;1.40;;;;;;;12.04;100.00;97730.34;5097296;28;20048;-84
2022/05/28 09:03:17;;;;;;;7.70;1.40;;;;;;;12.52;100.00;97746.38;5096808;28;20074;-81
2022/05/28 09:05:46;;;;;;;6.95;1.35;;;;;;;12.85;100.00;97741.94;5094210;28;20048;-81
2022/05/28 09:08:17;;;;;;;8.70;1.20;;;;;;;12.98;100.00;97751.78;5076808;28;20139;-79
2022/05/28 09:10:47;;;;;;;3.85;1.20;;;;;;;12.90;92.81;97747.19;5078510;28;20097;-82
2022/05/28 09:13:29;;;;;;;4.07;1.08;;;;;;;13.02;91.59;97744.56;5095537;28;20146;-79
2022/05/28 09:15:58;;;;;;;6.95;1.23;;;;;;;13.69;86.96;97736.31;5097031;28;20522;-78
2022/05/28 09:18:33;;;;;;;10.18;1.38;;;;;;;13.09;87.65;97734.81;5097544;28;20497;-82
2022/05/28 09:20:59;;;;;;;4.30;1.15;;;;;;;12.57;100.00;97747.00;5098243;28;20077;-80
2022/05/28 09:23:26;;;;;;;8.45;1.60;;;;;;;12.28;100.00;97726.00;5091427;28;20048;-84
2022/05/28 09:25:58;;;;;;;7.63;1.48;;;;;;;12.90;94.58;97731.69;5106940;28;20083;-80
2022/05/28 09:28:44;;;;;;;5.10;1.40;;;;;;;12.99;90.79;97743.31;5108649;28;20058;-77
2022/05/28 09:31:48;;;;;;;7.15;1.58;;;;;;;12.87;90.92;97747.84;5099287;28;20159;-81
2022/05/28 09:34:25;;;;;;;6.53;1.52;;;;;;;13.14;89.30;97746.63;5087317;28;20071;-79
2022/05/28 09:37:02;;;;;;;7.00;1.20;;;;;;;13.08;88.86;97751.47;5105867;28;20056;-82
2022/05/28 09:39:41;;;;;;;10.27;1.10;;;;;;;12.99;86.45;97753.38;5098878;28;20065;-84
2022/05/28 09:42:41;;;;;;;6.25;1.40;;;;;;;12.32;91.98;97756.81;5097621;28;20112;-82
2022/05/28 09:45:21;;;;;;;4.55;1.10;;;;;;;13.23;87.97;97761.75;5095584;28;20075;-81
2022/05/28 09:47:50;;;;;;;9.50;1.40;;;;;;;15.27;83.50;97762.84;5080750;28;20113;-81
2022/05/28 09:50:23;;;;;;;4.93;1.23;;;;;;;15.90;61.02;97755.81;5076791;28;20044;-78
2022/05/28 09:55:56;;;;;;;4.93;0.90;;;;;;;15.55;65.54;97750.09;5092062;28;20052;-81
2022/05/28 09:58:27;;;;;;;2.75;0.73;;;;;;;16.08;55.35;97753.56;5091398;28;20072;-81
2022/05/28 10:01:04;;;;;;;4.03;0.93;;;;;;;16.65;52.72;97747.75;5091567;28;20068;-82
2022/05/28 10:06:20;;;;;;;2.50;0.60;;;;;;;15.49;55.96;97737.03;5094154;28;20076;-83
2022/05/28 10:08:47;;;;;;;3.47;0.60;;;;;;;16.10;53.45;97743.13;5095411;28;20120;-82
2022/05/28 10:11:18;;;;;;;7.68;0.95;;;;;;;14.57;56.52;97736.78;5096162;28;20081;-84
2022/05/28 10:13:56;;;;;;;6.22;1.30;;;;;;;14.58;60.64;97743.03;5099078;28;20128;-85
2022/05/28 10:16:26;;;;;;;6.53;1.00;;;;;;;15.25;60.78;97745.22;5099464;28;20108;-82
2022/05/28 10:19:26;;;;;;;4.88;0.90;;;;;;;15.72;55.40;97740.06;5085170;28;20058;-84
2022/05/28 10:21:55;;;;;;;8.35;1.17;;;;;;;15.48;55.49;97740.91;5099032;28;20075;-81
2022/05/28 10:24:25;;;;;;;4.45;0.77;;;;;;;15.14;58.04;97728.53;5098604;28;20498;-84
2022/05/28 10:26:58;;;;;;;3.47;0.60;;;;;;;14.73;55.94;97748.63;5100572;28;20051;-82
2022/05/28 10:29:31;;;;;;;3.83;0.80;;;;;;;15.89;56.00;97742.50;5098437;28;20047;-83
2022/05/28 10:32:00;;;;;;;2.20;0.50;;;;;;;16.66;50.79;97733.75;5099970;28;20083;-82
2022/05/28 10:34:31;;;;;;;3.25;0.60;;;;;;;15.18;55.06;97732.16;5099535;28;20044;-81
2022/05/28 10:37:16;;;;;;;4.47;0.80;;;;;;;14.78;55.71;97736.69;5080925;28;20076;-84
2022/05/28 10:39:43;;;;;;;6.82;0.90;;;;;;;14.30;58.47;97730.00;5075222;28;20048;-82
2022/05/28 10:42:12;;;;;;;3.55;0.95;;;;;;;14.19;62.63;97736.22;5093368;28;20066;-84
2022/05/28 10:44:42;;;;;;;4.43;0.88;;;;;;;14.92;58.18;97746.13;5095425;28;20188;-84
2022/05/28 10:47:11;;;;;;;5.57;0.85;;;;;;;14.30;58.11;97729.19;5105891;28;20120;-79
2022/05/28 10:50:16;;;;;;;4.10;0.90;;;;;;;17.06;51.14;97733.53;5110229;28;20052;-81
2022/05/28 10:53:20;;;;;;;2.50;0.80;;;;;;;17.77;48.27;97737.94;5107854;28;20044;-81
2022/05/28 10:56:18;;;;;;;4.95;1.02;;;;;;;16.06;50.57;97723.91;5107738;28;20106;-78
2022/05/28 10:58:51;;;;;;;5.75;0.80;;;;;;;15.80;54.47;97729.00;5104672;28;20086;-80
2022/05/28 11:01:40;;;;;;;3.38;1.10;;;;;;;15.22;56.83;97741.25;5091355;28;20063;-78
2022/05/28 11:04:26;;;;;;;6.68;1.20;;;;;;;14.82;58.43;97730.22;5090559;28;20105;-80
2022/05/28 11:07:27;;;;;;;10.27;1.23;;;;;;;14.12;63.12;97752.28;5064361;28;20055;-80
2022/05/28 11:10:34;;;;;;;12.75;1.13;;;;;;;16.58;59.46;97737.44;5090400;28;20067;-80
2022/05/28 11:13:23;;;;;;;5.10;1.40;;;;;;;17.81;53.33;97747.00;5073399;28;20044;-81
2022/05/28 11:16:04;;;;;;;6.50;1.40;;;;;;;17.46;50.95;97749.72;5081330;28;20505;-81
2022/05/28 11:18:57;;;;;;;5.38;0.95;;;;;;;15.84;54.64;97753.69;5086078;28;20049;-82
2022/05/28 11:21:53;;;;;;;6.95;1.10;;;;;;;14.38;60.52;97758.28;5062545;28;20044;-83
2022/05/28 11:24:41;;;;;;;7.80;1.13;;;;;;;15.05;57.00;97746.94;5028075;28;20074;-82
2022/05/28 11:27:16;;;;;;;4.88;1.00;;;;;;;14.98;60.84;97758.41;5057388;28;20135;-80
2022/05/28 11:29:55;;;;;;;4.15;1.00;;;;;;;15.52;60.10;97742.59;5082990;28;20053;-84
2022/05/28 11:32:30;;;;;;;4.85;0.80;;;;;;;14.99;61.34;97740.91;5061433;28;20052;-79
2022/05/28 11:35:15;;;;;;;4.72;0.80;;;;;;;14.63;59.62;97746.34;5095725;28;20048;-79
2022/05/28 11:37:47;;;;;;;6.25;1.10;;;;;;;16.80;51.77;97734.09;5108028;28;20057;-81
2022/05/28 11:40:24;;;;;;;5.38;0.90;;;;;;;18.24;46.69;97744.00;5086766;28;20075;-84
2022/05/28 11:42:58;;;;;;;5.20;1.05;;;;;;;18.83;45.63;97718.84;5080925;28;20068;-80
2022/05/28 11:45:47;;;;;;;6.93;0.90;;;;;;;18.59;45.55;97720.00;5090144;28;20044;-79
2022/05/28 11:51:37;;;;;;;4.28;0.93;;;;;;;17.51;44.48;97721.28;5113687;28;20045;-82
2022/05/28 11:54:36;;;;;;;3.22;0.60;;;;;;;18.63;44.23;97709.13;5094907;28;20098;-83
2022/05/28 11:57:14;;;;;;;4.32;1.00;;;;;;;17.55;45.07;97741.38;5084322;28;20055;-82
2022/05/28 11:59:42;;;;;;;2.75;0.77;;;;;;;16.15;48.34;97727.28;5096475;28;20052;-83